Time;durP1;ratioP1;P1;durP2;ratioP2;P2;SDS_P1;SDS_P2;PMS_P1;PMS_P2;Temp;Humidity;BMP_temperature;BMP_pressure;BME280_temperature;BME280_humidity;BME280_pressure;Samples;Min_cycle;Max_cycle;Signal;HPM_P1;HPM_P2
2023/03/07 06:02:37;;;;;;;;;17.67;15.67;;;;;8.12;52.87;99989.41;4954424;28;46388;-54
2023/03/07 06:05:02;;;;;;;;;19.67;16.00;;;;;8.13;52.84;99977.03;4957614;28;45489;-55
2023/03/07 06:07:28;;;;;;;;;24.33;20.00;;;;;8.12;52.95;99981.47;4959314;28;45835;-55
2023/03/07 06:09:53;;;;;;;;;21.67;19.00;;;;;8.12;52.74;99978.81;4957957;28;66347;-55
2023/03/07 06:12:18;;;;;;;;;26.67;22.00;;;;;8.10;53.02;99978.06;4956284;28;69793;-55
2023/03/07 06:14:44;;;;;;;;;20.00;17.67;;;;;8.10;53.09;99975.41;4959010;28;72057;-56
2023/03/07 06:17:09;;;;;;;;;21.00;17.67;;;;;8.10;52.75;99986.00;4956332;28;69281;-55
2023/03/07 06:19:35;;;;;;;;;12.00;11.67;;;;;8.09;53.17;99979.84;4958940;28;45477;-55
2023/03/07 06:22:00;;;;;;;;;18.67;16.33;;;;;8.08;52.71;99987.88;4958946;28;66646;-54
2023/03/07 06:24:25;;;;;;;;;20.50;14.50;;;;;8.06;52.74;99985.31;4960020;28;46202;-55
2023/03/07 06:26:51;;;;;;;;;20.33;18.33;;;;;8.06;53.30;99987.97;4958968;28;45481;-55
2023/03/07 06:29:16;;;;;;;;;19.00;17.33;;;;;8.05;53.20;99980.94;4960294;28;45336;-55
2023/03/07 06:31:41;;;;;;;;;19.00;15.00;;;;;8.03;53.03;99984.59;4957961;28;67596;-55
2023/03/07 06:34:07;;;;;;;;;20.00;17.67;;;;;8.01;53.28;99981.19;4955165;28;45945;-54
2023/03/07 06:36:32;;;;;;;;;26.67;17.67;;;;;8.03;53.24;99985.47;4958374;28;45493;-53
2023/03/07 06:38:58;;;;;;;;;19.00;18.00;;;;;8.04;53.00;99979.22;4958531;28;67190;-53
2023/03/07 06:41:23;;;;;;;;;17.67;16.33;;;;;8.05;53.40;99982.75;4956467;28;65891;-54
2023/03/07 06:43:52;;;;;;;;;20.75;16.25;;;;;8.03;53.31;99982.84;4959064;28;46219;-55
2023/03/07 06:46:19;;;;;;;;;11.50;5.75;;;;;8.03;53.25;99976.66;4958692;28;45561;-53
2023/03/07 06:48:44;;;;;;;;;20.00;18.67;;;;;8.01;53.36;99981.19;4958471;28;45504;-53
2023/03/07 06:51:10;;;;;;;;;23.67;19.33;;;;;8.02;53.25;99985.56;4956277;28;45294;-54
2023/03/07 06:53:35;;;;;;;;;24.67;17.33;;;;;8.02;53.42;99986.41;4959041;28;72576;-54
2023/03/07 06:56:00;;;;;;;;;21.33;18.33;;;;;8.04;53.50;99984.53;4962213;28;69296;-54
2023/03/07 06:58:26;;;;;;;;;21.33;17.67;;;;;8.08;53.42;99991.41;4965338;28;45438;-54
2023/03/07 07:00:51;;;;;;;;;23.33;16.67;;;;;8.17;53.27;99986.53;4956704;28;45513;-54
2023/03/07 07:03:18;;;;;;;;;23.33;18.33;;;;;8.18;52.89;99975.84;4952039;28;69878;-53
2023/03/07 07:05:43;;;;;;;;;23.00;19.33;;;;;8.18;53.24;99996.22;4950451;28;45505;-52
2023/03/07 07:08:10;;;;;;;;;18.00;17.33;;;;;8.21;53.41;99986.31;4951172;28;45663;-54
2023/03/07 07:10:35;;;;;;;;;24.33;19.33;;;;;8.28;53.25;99981.53;4953142;28;46118;-52
2023/03/07 07:13:01;;;;;;;;;21.33;19.67;;;;;8.27;53.02;99985.13;4953532;28;45920;-54
2023/03/07 07:15:26;;;;;;;;;18.33;18.00;;;;;8.28;53.33;99987.69;4958417;28;45312;-53
2023/03/07 07:17:52;;;;;;;;;24.67;20.00;;;;;8.31;53.45;99986.66;4956962;28;56569;-53
2023/03/07 07:20:18;;;;;;;;;18.33;16.00;;;;;8.34;53.04;99989.13;4954616;28;45552;-52
2023/03/07 07:22:43;;;;;;;;;20.67;20.33;;;;;8.38;52.98;99990.72;4951273;28;66204;-56
2023/03/07 07:25:09;;;;;;;;;20.67;17.67;;;;;8.39;52.99;99995.03;4952831;28;45359;-60
2023/03/07 07:27:35;;;;;;;;;19.00;18.67;;;;;8.39;53.05;99995.03;4956034;28;45510;-58
2023/03/07 07:30:01;;;;;;;;;23.00;17.33;;;;;8.42;52.92;99984.28;4957983;28;46748;-57
2023/03/07 07:32:26;;;;;;;;;26.67;19.00;;;;;8.43;52.83;99990.44;4954258;28;46980;-57
2023/03/07 07:34:51;;;;;;;;;21.67;19.00;;;;;8.40;52.86;99990.63;4949271;28;67050;-57
2023/03/07 07:37:17;;;;;;;;;19.33;16.67;;;;;8.42;52.88;99984.28;4958578;28;45275;-57
2023/03/07 07:39:42;;;;;;;;;22.67;19.00;;;;;8.46;52.91;99987.69;4956475;28;68718;-57
2023/03/07 07:42:09;;;;;;;;;23.00;18.67;;;;;8.51;52.93;99979.47;4957260;28;46747;-58
2023/03/07 07:44:34;;;;;;;;;23.33;16.67;;;;;8.57;52.48;99981.78;4957080;28;45736;-59
2023/03/07 07:47:00;;;;;;;;;20.33;16.33;;;;;8.56;52.81;99975.59;4954076;28;45362;-58
2023/03/07 07:49:25;;;;;;;;;24.33;21.33;;;;;8.61;52.71;99989.47;4956359;28;55975;-58
2023/03/07 07:51:51;;;;;;;;;18.33;15.67;;;;;8.67;52.59;99992.72;4958378;28;75694;-58
2023/03/07 07:54:16;;;;;;;;;19.00;17.33;;;;;8.70;52.40;99987.28;4958963;28;68927;-58
2023/03/07 07:56:41;;;;;;;;;12.33;9.67;;;;;8.74;52.47;99992.31;4953351;28;68356;-58
2023/03/07 07:59:07;;;;;;;;;18.00;16.67;;;;;8.76;52.28;99990.44;4958461;28;67794;-58
2023/03/07 08:01:34;;;;;;;;;18.33;18.33;;;;;8.79;52.27;99981.44;4960199;28;45760;-58
2023/03/07 08:03:59;;;;;;;;;22.67;17.33;;;;;8.81;52.29;99987.50;4964347;28;45324;-58
2023/03/07 08:06:26;;;;;;;;;19.33;18.00;;;;;8.79;52.04;99989.41;4959475;28;45523;-58
2023/03/07 08:08:52;;;;;;;;;24.33;15.67;;;;;8.74;52.14;99999.41;4958978;28;46625;-58
2023/03/07 08:11:19;;;;;;;;;16.33;15.67;;;;;8.73;52.36;100009.16;4960761;28;45972;-58
2023/03/07 08:13:44;;;;;;;;;18.00;16.33;;;;;8.75;52.40;100009.09;4959789;28;45475;-58
2023/03/07 08:16:15;;;;;;;;;16.00;16.00;;;;;8.82;52.21;100006.94;4953675;28;45654;-58
2023/03/07 08:18:41;;;;;;;;;18.00;15.33;;;;;8.82;52.10;100004.28;4955735;28;45594;-58
2023/03/07 08:21:07;;;;;;;;;19.67;15.33;;;;;8.82;52.14;100001.66;4954818;28;45568;-58
2023/03/07 08:23:33;;;;;;;;;19.67;16.67;;;;;8.84;51.98;99999.75;4960683;28;45539;-58
2023/03/07 08:26:03;;;;;;;;;20.33;16.00;;;;;8.84;52.60;100000.63;4957522;28;45633;-58
2023/03/07 08:28:29;;;;;;;;;14.00;14.00;;;;;8.92;52.26;100003.69;4959964;28;45413;-58
2023/03/07 08:30:54;;;;;;;;;16.33;14.33;;;;;8.95;52.06;100000.00;4955070;28;46087;-58
2023/03/07 08:33:19;;;;;;;;;19.67;14.00;;;;;8.96;51.82;99999.06;4960557;28;45420;-58
2023/03/07 08:35:45;;;;;;;;;18.00;15.00;;;;;9.02;51.74;99998.75;4956703;28;68109;-62
2023/03/07 08:38:10;;;;;;;;;22.00;14.67;;;;;9.04;51.75;99991.53;4959288;28;68620;-58
2023/03/07 08:40:35;;;;;;;;;19.00;14.33;;;;;9.03;51.75;99997.78;4951872;28;73316;-58
2023/03/07 08:43:00;;;;;;;;;22.33;15.33;;;;;9.05;51.66;100003.88;4957652;28;69047;-58
2023/03/07 08:45:26;;;;;;;;;21.33;14.00;;;;;9.07;51.99;99998.47;4952347;28;69462;-58
2023/03/07 08:47:55;;;;;;;;;16.33;13.00;;;;;9.16;51.83;100002.41;4955357;28;56481;-57
2023/03/07 08:50:22;;;;;;;;;16.00;14.67;;;;;9.26;51.73;99998.28;4958100;28;45513;-58
2023/03/07 08:52:47;;;;;;;;;19.67;16.00;;;;;9.37;51.29;99985.25;4954427;28;45323;-58
2023/03/07 08:55:13;;;;;;;;;22.00;11.67;;;;;9.48;51.27;99997.91;4964240;28;46553;-58
2023/03/07 08:57:38;;;;;;;;;21.67;16.00;;;;;9.55;50.92;99993.94;4956226;28;45303;-58
2023/03/07 09:00:07;;;;;;;;;21.33;13.00;;;;;9.56;50.93;99992.16;4954094;28;45251;-58
2023/03/07 09:02:32;;;;;;;;;12.33;12.33;;;;;9.51;50.66;99989.75;4953413;28;45540;-58
2023/03/07 09:04:58;;;;;;;;;19.67;16.00;;;;;9.54;51.01;100002.00;4953585;28;68140;-58
2023/03/07 09:07:23;;;;;;;;;17.67;14.00;;;;;9.54;50.42;99997.56;4959909;28;45455;-58
2023/03/07 09:09:48;;;;;;;;;19.33;13.67;;;;;9.55;50.49;100001.03;4958353;28;46056;-58
2023/03/07 09:12:14;;;;;;;;;15.00;13.67;;;;;9.61;50.54;99990.06;4956493;28;67178;-58
2023/03/07 09:14:39;;;;;;;;;16.33;11.00;;;;;9.65;50.42;99990.72;4956979;28;65415;-58
2023/03/07 09:17:04;;;;;;;;;17.67;13.00;;;;;9.69;50.64;100002.91;4958436;28;70323;-58
2023/03/07 09:19:30;;;;;;;;;12.00;11.00;;;;;9.77;50.48;99993.50;4955491;28;46945;-58
2023/03/07 09:21:55;;;;;;;;;20.00;14.33;;;;;9.88;50.34;99992.03;4958844;28;45674;-58
2023/03/07 09:24:21;;;;;;;;;13.33;12.67;;;;;9.96;50.30;99983.59;4973975;28;45459;-58
2023/03/07 09:26:46;;;;;;;;;16.00;14.00;;;;;10.05;49.76;99985.69;4957217;28;45362;-58
2023/03/07 09:29:11;;;;;;;;;18.00;17.67;;;;;10.20;49.89;99982.09;4951970;28;46560;-58
2023/03/07 09:31:37;;;;;;;;;18.67;16.67;;;;;10.35;49.44;99980.34;4960572;28;72298;-58
2023/03/07 09:34:04;;;;;;;;;17.00;15.00;;;;;10.49;49.27;99984.78;4955555;28;45401;-58
2023/03/07 09:36:29;;;;;;;;;18.67;15.33;;;;;10.61;49.30;99977.84;4951785;28;45569;-58
2023/03/07 09:38:55;;;;;;;;;21.00;17.00;;;;;10.85;49.15;99977.25;4949830;28;71828;-58
2023/03/07 09:41:30;;;;;;;;;13.33;13.00;;;;;11.09;49.05;99985.44;4950478;28;45640;-58
2023/03/07 09:44:22;;;;;;;;;14.00;14.00;;;;;11.29;48.39;99986.81;4952701;28;45352;-58
2023/03/07 09:47:27;;;;;;;;;10.33;10.33;;;;;11.45;48.06;99969.81;4952237;28;45703;-58
2023/03/07 09:49:52;;;;;;;;;16.00;15.67;;;;;11.62;47.62;99958.88;4956069;28;46336;-58
2023/03/07 09:52:24;;;;;;;;;18.33;12.67;;;;;11.65;47.40;99961.31;4957444;28;45365;-58
2023/03/07 09:55:02;;;;;;;;;17.00;16.00;;;;;11.65;46.82;99960.47;4956901;28;45354;-58
2023/03/07 09:57:33;;;;;;;;;19.67;17.67;;;;;11.69;46.90;99962.84;4956685;28;45543;-58
2023/03/07 10:00:02;;;;;;;;;17.67;14.33;;;;;11.77;46.87;99954.28;4952822;28;46301;-58
2023/03/07 10:03:15;;;;;;;;;19.00;17.67;;;;;11.84;46.27;99949.44;4958623;28;45433;-58
2023/03/07 10:05:45;;;;;;;;;17.33;14.67;;;;;12.00;46.33;99942.09;4940003;28;45485;-58
2023/03/07 10:08:17;;;;;;;;;15.00;13.00;;;;;12.16;45.83;99944.56;4952358;28;45596;-58
2023/03/07 10:11:02;;;;;;;;;18.67;15.00;;;;;12.54;45.45;99940.97;4958403;28;45658;-58
2023/03/07 10:13:46;;;;;;;;;16.67;14.00;;;;;12.98;45.98;99935.16;4951798;28;45440;-58
2023/03/07 10:16:17;;;;;;;;;16.67;16.00;;;;;13.33;45.13;99935.19;4955671;28;45464;-58
2023/03/07 10:19:09;;;;;;;;;20.33;16.00;;;;;13.19;43.63;99932.72;4957052;28;45357;-58
2023/03/07 10:21:46;;;;;;;;;19.00;17.00;;;;;12.98;43.96;99935.16;4957246;28;45474;-58
2023/03/07 10:24:26;;;;;;;;;12.00;11.33;;;;;12.82;43.98;99930.97;4951650;28;46545;-58
2023/03/07 10:26:51;;;;;;;;;16.00;11.67;;;;;12.61;43.14;99920.03;4953284;28;45387;-59
2023/03/07 10:29:18;;;;;;;;;15.00;14.00;;;;;12.42;43.52;99923.16;4959056;28;45431;-58
2023/03/07 10:31:48;;;;;;;;;16.33;12.67;;;;;12.32;44.46;99922.13;4958452;28;46215;-58
2023/03/07 10:34:16;;;;;;;;;19.67;16.33;;;;;12.25;44.14;99916.38;4958829;28;45401;-58
2023/03/07 10:36:46;;;;;;;;;15.00;15.00;;;;;12.06;44.31;99912.34;4954567;28;45411;-58
2023/03/07 10:39:26;;;;;;;;;21.67;17.67;;;;;11.98;44.62;99916.50;4954999;28;45612;-58
2023/03/07 10:41:52;;;;;;;;;17.33;16.33;;;;;12.11;44.66;99921.81;4956506;28;45436;-58
2023/03/07 10:44:19;;;;;;;;;16.33;16.33;;;;;12.22;44.69;99912.09;4953310;28;45749;-58
2023/03/07 10:46:45;;;;;;;;;20.00;15.67;;;;;12.34;44.52;99918.38;4955665;28;46646;-59
2023/03/07 10:49:25;;;;;;;;;20.67;17.67;;;;;12.44;44.58;99921.25;4957004;28;45674;-58
2023/03/07 10:51:55;;;;;;;;;22.00;19.33;;;;;12.61;44.14;99913.84;4951250;28;46448;-58
2023/03/07 10:54:23;;;;;;;;;17.33;16.00;;;;;12.75;44.04;99908.38;4956038;28;45567;-59
2023/03/07 10:57:11;;;;;;;;;16.33;16.00;;;;;13.03;43.97;99909.81;4946724;28;45665;-58
2023/03/07 10:59:42;;;;;;;;;17.67;15.67;;;;;13.45;43.68;99897.88;4958509;28;45243;-58
2023/03/07 11:02:36;;;;;;;;;17.00;15.67;;;;;14.07;43.09;99904.66;4956484;28;45607;-58
2023/03/07 11:05:20;;;;;;;;;20.33;18.00;;;;;14.73;42.55;99903.88;4944853;28;45560;-58
2023/03/07 11:07:45;;;;;;;;;16.67;14.00;;;;;15.39;41.50;99889.53;4956807;28;45457;-58
2023/03/07 11:10:25;;;;;;;;;16.67;14.33;;;;;16.20;40.57;99889.75;4952236;28;46614;-58
2023/03/07 11:12:50;;;;;;;;;15.33;12.33;;;;;16.62;39.25;99888.75;4952540;28;46294;-58
2023/03/07 11:15:23;;;;;;;;;15.00;12.67;;;;;16.70;38.78;99888.06;4962226;28;45324;-58
2023/03/07 11:17:49;;;;;;;;;15.33;15.33;;;;;16.65;38.92;99906.41;4955076;28;45524;-58
2023/03/07 11:20:27;;;;;;;;;14.00;11.33;;;;;16.68;37.86;99896.22;4958492;28;45474;-59
2023/03/07 11:23:17;;;;;;;;;13.00;13.00;;;;;16.87;37.67;99895.41;4956834;28;46361;-59
2023/03/07 11:25:42;;;;;;;;;17.00;13.00;;;;;16.94;37.15;99903.78;4952839;28;45694;-58
2023/03/07 11:28:41;;;;;;;;;14.33;13.33;;;;;16.80;36.01;99901.47;4957408;28;53564;-58
2023/03/07 11:31:30;;;;;;;;;13.00;13.00;;;;;16.63;35.72;99903.84;4939093;28;45755;-58
2023/03/07 11:34:08;;;;;;;;;14.33;12.67;;;;;16.65;36.22;99907.25;4950647;28;45601;-57
2023/03/07 11:36:35;;;;;;;;;12.67;12.67;;;;;16.74;35.64;99910.94;4956117;28;45292;-58
2023/03/07 11:39:32;;;;;;;;;14.00;12.00;;;;;16.83;35.58;99910.13;4944872;28;45580;-58
2023/03/07 11:42:14;;;;;;;;;14.33;10.33;;;;;16.74;35.52;99916.31;4951017;28;45380;-58
2023/03/07 11:44:48;;;;;;;;;8.33;8.00;;;;;16.59;35.09;99912.31;4950386;28;45378;-58
2023/03/07 11:47:26;;;;;;;;;17.00;14.00;;;;;16.44;34.57;99910.03;4954278;28;45527;-58
2023/03/07 11:50:15;;;;;;;;;11.33;11.33;;;;;16.21;35.44;99904.00;4951335;28;45774;-58
2023/03/07 11:53:17;;;;;;;;;19.67;13.00;;;;;16.09;36.14;99907.75;4956309;28;45696;-58
2023/03/07 11:55:52;;;;;;;;;13.67;12.00;;;;;16.01;35.54;99903.91;4948679;28;45488;-58
2023/03/07 11:58:40;;;;;;;;;14.00;13.00;;;;;15.88;36.04;99916.69;4955657;28;45482;-58
2023/03/07 12:01:27;;;;;;;;;13.67;9.67;;;;;15.72;35.84;99914.44;4953542;28;45464;-58
2023/03/07 12:04:05;;;;;;;;;15.67;14.00;;;;;15.61;35.18;99914.50;4957063;28;45285;-58
2023/03/07 12:06:49;;;;;;;;;12.33;9.67;;;;;15.57;34.42;99918.44;4956915;28;46308;-58
2023/03/07 12:09:41;;;;;;;;;12.33;12.00;;;;;15.90;34.95;99914.72;4950151;28;45376;-57
2023/03/07 12:12:09;;;;;;;;;16.00;13.00;;;;;15.82;34.66;99906.50;4952985;28;45508;-59
2023/03/07 12:14:57;;;;;;;;;10.67;9.67;;;;;15.65;35.20;99908.75;4957703;28;45449;-59
2023/03/07 12:17:54;;;;;;;;;12.33;12.33;;;;;15.84;35.30;99913.41;4952494;28;46138;-59
2023/03/07 12:20:22;;;;;;;;;15.67;13.00;;;;;15.99;35.12;99911.22;4952625;28;45307;-59
2023/03/07 12:22:50;;;;;;;;;14.00;12.67;;;;;16.35;35.11;99910.84;4953261;28;45481;-59
2023/03/07 12:25:24;;;;;;;;;11.33;11.33;;;;;16.62;33.92;99887.88;4957464;28;45450;-59
2023/03/07 12:28:02;;;;;;;;;11.67;9.33;;;;;16.67;33.92;99891.00;4955129;28;47392;-58
2023/03/07 12:30:52;;;;;;;;;12.33;9.67;;;;;16.70;34.23;99896.94;4958266;28;45311;-58
2023/03/07 12:33:27;;;;;;;;;12.00;11.33;;;;;16.58;34.03;99883.78;4958228;28;45519;-58
2023/03/07 12:36:07;;;;;;;;;8.00;7.67;;;;;16.50;33.55;99874.59;4957140;28;45654;-58
2023/03/07 12:38:37;;;;;;;;;11.67;10.00;;;;;16.67;33.81;99875.75;4960345;28;45874;-57
2023/03/07 12:41:39;;;;;;;;;14.00;10.00;;;;;17.74;32.22;99878.56;4959580;28;45512;-58
2023/03/07 12:44:11;;;;;;;;;9.67;9.00;;;;;18.93;31.59;99877.88;4951454;28;45767;-59
2023/03/07 12:47:13;;;;;;;;;9.00;9.00;;;;;18.73;31.08;99869.06;4961119;28;45562;-58
2023/03/07 12:49:45;;;;;;;;;12.67;12.67;;;;;18.54;30.15;99868.19;4952448;28;46108;-59
2023/03/07 12:52:24;;;;;;;;;8.67;8.67;;;;;18.34;30.93;99873.69;4938461;28;46211;-58
2023/03/07 12:54:57;;;;;;;;;12.33;8.33;;;;;18.01;30.66;99886.69;4954190;28;45704;-58
2023/03/07 12:57:34;;;;;;;;;12.67;12.33;;;;;17.56;31.11;99882.00;4956539;28;46747;-58
2023/03/07 13:00:03;;;;;;;;;10.67;10.33;;;;;17.26;32.30;99878.50;4954626;28;46950;-58
2023/03/07 13:02:32;;;;;;;;;11.00;10.00;;;;;17.01;31.24;99887.94;4957128;28;45366;-58
2023/03/07 13:05:00;;;;;;;;;9.67;9.00;;;;;16.74;32.07;99883.22;4954752;28;45636;-59
2023/03/07 13:07:31;;;;;;;;;20.33;15.33;;;;;16.53;32.19;99874.31;4938669;28;45427;-59
2023/03/07 13:09:58;;;;;;;;;8.67;8.67;;;;;16.38;32.22;99883.72;4956460;28;46510;-59
2023/03/07 13:12:30;;;;;;;;;11.00;11.00;;;;;16.22;32.52;99870.81;4947583;28;45279;-58
2023/03/07 13:14:58;;;;;;;;;10.00;10.00;;;;;16.17;32.73;99879.25;4974212;28;45280;-56
2023/03/07 13:17:29;;;;;;;;;13.00;10.00;;;;;15.94;32.63;99865.19;4957940;28;45535;-57
2023/03/07 13:19:59;;;;;;;;;12.00;10.00;;;;;15.69;33.29;99879.84;4955751;28;45537;-57
2023/03/07 13:22:24;;;;;;;;;10.33;10.33;;;;;15.53;32.93;99874.97;4959526;28;45330;-57
2023/03/07 13:24:51;;;;;;;;;13.67;11.33;;;;;15.47;34.02;99870.97;4952797;28;45328;-57
2023/03/07 13:27:22;;;;;;;;;16.00;12.33;;;;;15.36;33.66;99871.03;4957857;28;45515;-57
2023/03/07 13:30:09;;;;;;;;;13.67;11.00;;;;;15.16;34.13;99878.94;4949694;28;45803;-58
2023/03/07 13:32:49;;;;;;;;;13.00;10.67;;;;;14.99;33.79;99892.88;4956731;28;45451;-57
2023/03/07 13:35:27;;;;;;;;;12.67;11.00;;;;;14.85;34.40;99897.53;4947288;28;45395;-57
2023/03/07 13:38:40;;;;;;;;;11.67;11.67;;;;;14.68;34.55;99892.75;4955649;28;45635;-57
2023/03/07 13:41:07;;;;;;;;;12.00;10.67;;;;;14.45;34.81;99892.72;4953196;28;46481;-57
2023/03/07 13:43:55;;;;;;;;;10.67;8.67;;;;;14.34;35.17;99890.94;4958802;28;45474;-57
2023/03/07 13:46:41;;;;;;;;;10.67;10.33;;;;;14.17;34.89;99889.59;4959204;28;45584;-57
2023/03/07 13:49:06;;;;;;;;;13.33;11.00;;;;;14.00;35.27;99898.97;4958263;28;45347;-59
2023/03/07 13:51:32;;;;;;;;;12.33;11.00;;;;;13.95;35.55;99897.59;4957665;28;72705;-58
2023/03/07 13:54:05;;;;;;;;;11.00;8.67;;;;;14.00;35.69;99901.63;4953627;28;68360;-58
2023/03/07 13:56:40;;;;;;;;;9.67;8.00;;;;;14.07;35.66;99900.16;4951358;28;45495;-58
2023/03/07 13:59:08;;;;;;;;;12.33;8.67;;;;;14.16;35.57;99901.25;4956932;28;45465;-58
2023/03/07 14:01:56;;;;;;;;;10.33;10.33;;;;;14.32;36.04;99900.03;4952242;28;46448;-56
2023/03/07 14:04:41;;;;;;;;;10.67;10.67;;;;;14.49;35.88;99896.00;4954087;28;45319;-58
2023/03/07 14:07:26;;;;;;;;;9.00;8.67;;;;;14.52;35.54;99891.28;4957624;28;45576;-57
2023/03/07 14:10:05;;;;;;;;;13.00;10.67;;;;;14.52;35.76;99895.75;4957090;28;45586;-57
2023/03/07 14:13:03;;;;;;;;;9.00;9.00;;;;;14.51;35.52;99902.06;4953929;28;45527;-56
2023/03/07 14:15:51;;;;;;;;;12.33;10.33;;;;;14.41;35.27;99898.47;4953310;28;45448;-56
2023/03/07 14:18:41;;;;;;;;;10.00;9.00;;;;;14.33;35.36;99907.09;4943011;28;45516;-58
2023/03/07 14:21:25;;;;;;;;;5.67;5.33;;;;;14.22;35.16;99922.19;4954096;28;45460;-59
2023/03/07 14:24:11;;;;;;;;;10.67;9.67;;;;;14.16;35.93;99922.66;4956152;28;46199;-59
2023/03/07 14:26:47;;;;;;;;;14.00;11.00;;;;;14.12;35.94;99921.19;4955161;28;45527;-56
2023/03/07 14:29:21;;;;;;;;;9.67;9.67;;;;;14.01;35.63;99903.31;4955897;28;46275;-59
2023/03/07 14:31:49;;;;;;;;;14.00;12.00;;;;;13.93;35.86;99897.72;4954713;28;45500;-59
2023/03/07 14:34:25;;;;;;;;;12.67;11.00;;;;;13.67;35.98;99897.94;4951165;28;46098;-59
2023/03/07 14:36:51;;;;;;;;;11.00;8.67;;;;;13.60;36.20;99901.19;4960489;28;45456;-56
2023/03/07 14:39:17;;;;;;;;;10.67;10.67;;;;;13.52;36.47;99899.13;4957502;28;45525;-59
2023/03/07 14:41:54;;;;;;;;;12.33;10.00;;;;;13.64;36.80;99897.34;4949253;28;45402;-56
2023/03/07 14:44:53;;;;;;;;;10.67;10.00;;;;;13.75;36.17;99897.34;4974338;28;45512;-59
2023/03/07 14:47:29;;;;;;;;;13.00;11.33;;;;;13.78;36.53;99893.56;4958584;28;45440;-57
2023/03/07 14:50:24;;;;;;;;;10.33;9.33;;;;;13.69;36.40;99887.16;4959390;28;45331;-57
2023/03/07 14:52:58;;;;;;;;;10.00;9.00;;;;;13.48;36.85;99881.63;4954766;28;45519;-57
2023/03/07 14:55:36;;;;;;;;;13.00;9.67;;;;;13.35;36.93;99889.69;4956360;28;46224;-57
2023/03/07 14:58:02;;;;;;;;;10.67;10.33;;;;;13.35;37.16;99890.53;4954805;28;45520;-57
2023/03/07 15:00:28;;;;;;;;;9.00;9.00;;;;;13.49;37.05;99891.34;4954011;28;60422;-56
2023/03/07 15:02:53;;;;;;;;;15.00;9.67;;;;;13.60;36.90;99893.16;4956868;28;45424;-57
2023/03/07 15:05:24;;;;;;;;;10.67;9.67;;;;;13.59;36.86;99884.31;4957686;28;45360;-56
2023/03/07 15:07:50;;;;;;;;;10.00;10.00;;;;;13.50;37.04;99890.38;4958488;28;45450;-58
2023/03/07 15:10:18;;;;;;;;;13.33;12.33;;;;;13.44;36.96;99880.16;4953957;28;45593;-56
2023/03/07 15:12:48;;;;;;;;;10.00;10.00;;;;;13.39;37.03;99896.53;4953052;28;45421;-56
2023/03/07 15:15:23;;;;;;;;;6.00;4.00;;;;;13.33;36.85;99891.63;4941964;28;45557;-55
2023/03/07 15:17:48;;;;;;;;;15.67;13.00;;;;;13.36;37.20;99884.28;4952430;28;45281;-56
2023/03/07 15:20:23;;;;;;;;;14.67;11.67;;;;;13.44;37.11;99882.81;4955674;28;64582;-55
2023/03/07 15:22:48;;;;;;;;;10.33;9.00;;;;;13.45;37.02;99884.53;4949503;28;45528;-55
2023/03/07 15:25:22;;;;;;;;;11.00;10.00;;;;;13.47;37.03;99883.44;4955075;28;71657;-54
2023/03/07 15:28:03;;;;;;;;;11.67;10.00;;;;;13.49;37.24;99875.31;4955905;28;45459;-55
2023/03/07 15:30:32;;;;;;;;;17.00;12.33;;;;;13.47;37.10;99869.25;4957023;28;46812;-55
2023/03/07 15:33:03;;;;;;;;;11.50;10.50;;;;;13.45;36.91;99874.69;4952911;28;45850;-55
2023/03/07 15:35:29;;;;;;;;;10.33;10.33;;;;;13.40;37.29;99866.16;4948438;28;45537;-54
2023/03/07 15:37:56;;;;;;;;;9.33;8.00;;;;;13.41;37.41;99862.53;4955198;28;45485;-54
2023/03/07 15:40:30;;;;;;;;;11.33;11.33;;;;;13.53;37.48;99871.44;4956225;28;45326;-55
2023/03/07 15:42:58;;;;;;;;;14.00;12.00;;;;;13.64;37.60;99867.94;4955147;28;45740;-55
2023/03/07 15:45:28;;;;;;;;;9.00;7.00;;;;;13.70;37.24;99868.31;4945744;28;46509;-56
2023/03/07 15:47:53;;;;;;;;;14.00;13.00;;;;;13.72;37.15;99865.50;4958556;28;45480;-56
2023/03/07 15:50:24;;;;;;;;;11.00;10.00;;;;;13.66;36.93;99869.53;4936680;28;45394;-55
2023/03/07 15:52:55;;;;;;;;;10.33;9.00;;;;;13.54;37.10;99873.97;4956424;28;45307;-55
2023/03/07 15:55:24;;;;;;;;;13.00;11.00;;;;;13.48;36.95;99869.13;4953238;28;46090;-55
2023/03/07 15:57:51;;;;;;;;;11.67;11.00;;;;;13.41;37.22;99883.91;4952653;28;45578;-52
2023/03/07 16:00:19;;;;;;;;;12.33;11.67;;;;;13.31;37.36;99881.06;4951086;28;45804;-55
2023/03/07 16:02:49;;;;;;;;;13.33;11.00;;;;;13.25;37.49;99873.50;4953365;28;46837;-55
2023/03/07 16:05:23;;;;;;;;;10.33;10.33;;;;;13.23;37.30;99875.44;4955346;28;46388;-56
2023/03/07 16:07:54;;;;;;;;;13.00;12.00;;;;;13.16;37.69;99876.88;4954948;28;45553;-56
2023/03/07 16:10:21;;;;;;;;;12.33;11.00;;;;;13.08;37.57;99874.78;4950491;28;45536;-55
2023/03/07 16:12:47;;;;;;;;;11.67;9.67;;;;;13.00;37.62;99879.88;4954704;28;46002;-54
2023/03/07 16:15:14;;;;;;;;;16.33;12.33;;;;;12.87;37.64;99898.59;4949415;28;46096;-55
2023/03/07 16:17:39;;;;;;;;;21.00;12.33;;;;;12.72;38.01;99887.22;4958001;28;45845;-55
2023/03/07 16:20:14;;;;;;;;;17.33;14.00;;;;;12.61;38.15;99887.19;4957310;28;45420;-55
2023/03/07 16:22:39;;;;;;;;;10.33;10.33;;;;;12.46;38.12;99879.31;4958373;28;45493;-55
2023/03/07 16:25:06;;;;;;;;;11.33;8.33;;;;;12.39;38.39;99878.91;4957160;28;73255;-55
2023/03/07 16:27:32;;;;;;;;;8.00;8.00;;;;;12.35;38.54;99881.91;4957939;28;45664;-55
2023/03/07 16:29:58;;;;;;;;;14.33;9.33;;;;;12.30;38.39;99882.22;4959018;28;45422;-54
2023/03/07 16:32:23;;;;;;;;;11.00;10.33;;;;;12.24;38.71;99882.66;4957556;28;45579;-56
2023/03/07 16:34:49;;;;;;;;;15.00;12.67;;;;;12.17;38.77;99890.25;4946065;28;71458;-55
2023/03/07 16:37:14;;;;;;;;;10.00;9.67;;;;;12.12;38.72;99887.06;4948247;28;73240;-55
2023/03/07 16:39:40;;;;;;;;;9.67;9.67;;;;;12.07;38.83;99878.53;4955732;28;45482;-57
2023/03/07 16:42:06;;;;;;;;;11.33;9.00;;;;;12.07;39.07;99884.75;4952835;28;45344;-54
2023/03/07 16:44:37;;;;;;;;;8.67;7.67;;;;;12.07;39.15;99881.19;4955576;28;45484;-55
2023/03/07 16:47:03;;;;;;;;;12.33;11.00;;;;;12.03;39.17;99891.25;4956862;28;45482;-55
2023/03/07 16:49:29;;;;;;;;;12.00;10.00;;;;;11.99;39.14;99889.75;4957326;28;45681;-55
2023/03/07 16:51:54;;;;;;;;;11.00;11.00;;;;;11.99;39.32;99899.56;4955558;28;46339;-54
2023/03/07 16:54:20;;;;;;;;;9.00;8.00;;;;;12.00;39.47;99893.28;4957325;28;73352;-55
2023/03/07 16:56:48;;;;;;;;;13.67;11.33;;;;;12.02;39.41;99894.88;4960891;28;45397;-57
2023/03/07 16:59:16;;;;;;;;;14.33;9.33;;;;;12.03;39.50;99898.38;4955742;28;45375;-58
2023/03/07 17:01:46;;;;;;;;;12.67;11.33;;;;;11.97;39.35;99904.13;4952644;28;45649;-58
2023/03/07 17:04:12;;;;;;;;;16.33;10.67;;;;;11.92;39.62;99899.94;4954486;28;46634;-57
2023/03/07 17:06:37;;;;;;;;;10.67;10.67;;;;;11.87;39.69;99896.75;4956829;28;46393;-58
2023/03/07 17:09:08;;;;;;;;;15.33;10.00;;;;;11.85;39.61;99901.34;4958713;28;45500;-58
2023/03/07 17:11:34;;;;;;;;;11.00;10.33;;;;;11.81;39.58;99891.00;4953319;28;45341;-59
2023/03/07 17:14:02;;;;;;;;;13.00;11.00;;;;;11.78;40.01;99894.72;4957557;28;46957;-59
2023/03/07 17:16:28;;;;;;;;;15.00;10.00;;;;;11.80;39.86;99897.28;4952662;28;45730;-57
2023/03/07 17:18:54;;;;;;;;;14.33;12.00;;;;;11.78;39.77;99889.41;4954136;28;45444;-57
2023/03/07 17:21:21;;;;;;;;;13.67;12.00;;;;;11.76;39.95;99899.34;4955492;28;68561;-58
2023/03/07 17:23:48;;;;;;;;;14.00;12.67;;;;;11.75;40.14;99903.78;4956906;28;47137;-57
2023/03/07 17:26:33;;;;;;;;;10.33;10.33;;;;;11.78;40.18;99904.53;4955886;28;45524;-57
2023/03/07 17:29:02;;;;;;;;;17.00;15.00;;;;;11.78;40.26;99905.38;4945838;28;45802;-57
2023/03/07 17:31:27;;;;;;;;;11.00;11.00;;;;;11.76;40.21;99912.66;4953780;28;45812;-58
2023/03/07 17:33:53;;;;;;;;;15.33;11.33;;;;;11.75;40.29;99919.78;4955886;28;46187;-57
2023/03/07 17:36:18;;;;;;;;;15.33;10.00;;;;;11.71;40.33;99920.09;4954506;28;45508;-57
2023/03/07 17:38:44;;;;;;;;;16.67;12.33;;;;;11.72;40.55;99921.78;4954794;28;60925;-57
2023/03/07 17:41:09;;;;;;;;;13.00;12.33;;;;;11.72;40.35;99924.44;4957252;28;69971;-57
2023/03/07 17:43:34;;;;;;;;;14.67;13.00;;;;;11.73;40.58;99920.84;4957689;28;72779;-57